createdAt,value
2022-08-24T00:01:32.885Z,99.90
2022-08-24T00:04:01.017Z,99.90
2022-08-24T00:06:29.949Z,99.90
2022-08-24T00:09:00.214Z,99.90
2022-08-24T00:11:28.536Z,99.90
2022-08-24T00:13:57.179Z,99.90
2022-08-24T00:16:26.218Z,99.90
2022-08-24T00:18:56.141Z,99.90
2022-08-24T00:21:24.154Z,99.90
2022-08-24T00:23:52.180Z,99.90
2022-08-24T00:26:28.721Z,99.90
2022-08-24T00:28:57.512Z,99.90
2022-08-24T00:31:25.703Z,99.90
2022-08-24T00:33:56.461Z,99.90
2022-08-24T00:36:24.880Z,99.90
2022-08-24T00:38:53.043Z,99.90
2022-08-24T00:41:21.175Z,99.90
2022-08-24T00:43:55.314Z,99.90
2022-08-24T00:46:26.793Z,99.90
2022-08-24T00:49:03.970Z,99.90
2022-08-24T00:51:37.593Z,99.90
2022-08-24T00:54:10.467Z,99.90
2022-08-24T00:56:44.871Z,99.90
2022-08-24T00:59:18.687Z,99.90
2022-08-24T01:01:47.769Z,99.90
2022-08-24T01:04:23.420Z,99.90
2022-08-24T01:06:51.577Z,99.90
2022-08-24T01:09:19.620Z,99.90
2022-08-24T01:11:48.323Z,99.90
2022-08-24T01:14:17.353Z,99.90
2022-08-24T01:17:03.535Z,99.90
2022-08-24T01:19:37.524Z,99.90
2022-08-24T01:22:21.993Z,99.90
2022-08-24T01:24:51.303Z,99.90
2022-08-24T01:27:22.912Z,99.90
2022-08-24T01:29:58.532Z,99.90
2022-08-24T01:32:28.869Z,99.90
2022-08-24T01:34:57.803Z,99.90
2022-08-24T01:37:25.982Z,99.90
2022-08-24T01:39:59.199Z,99.90
2022-08-24T01:42:29.826Z,99.90
2022-08-24T01:44:57.884Z,99.90
2022-08-24T01:47:25.865Z,99.90
2022-08-24T01:49:53.841Z,99.90
2022-08-24T01:52:24.335Z,99.90
2022-08-24T01:54:52.604Z,99.90
2022-08-24T01:57:25.647Z,99.90
2022-08-24T01:59:53.682Z,99.90
2022-08-24T02:02:26.835Z,99.90
2022-08-24T02:04:54.932Z,99.90
2022-08-24T02:07:23.365Z,99.90
2022-08-24T02:09:51.467Z,99.90
2022-08-24T02:12:21.510Z,99.90
2022-08-24T02:14:49.664Z,99.90
2022-08-24T02:17:18.245Z,99.90
2022-08-24T02:19:47.210Z,99.90
2022-08-24T02:22:15.306Z,99.90
2022-08-24T02:24:43.506Z,99.90
2022-08-24T02:27:11.489Z,99.90
2022-08-24T02:29:41.478Z,99.90
2022-08-24T02:32:10.946Z,99.90
2022-08-24T02:34:39.155Z,99.90
2022-08-24T02:37:07.560Z,99.90
2022-08-24T02:39:35.536Z,99.90
2022-08-24T02:42:03.553Z,99.90
2022-08-24T02:44:31.563Z,99.90
2022-08-24T02:47:00.892Z,99.90
2022-08-24T02:49:28.925Z,99.90
2022-08-24T02:51:57.838Z,99.90
2022-08-24T02:54:25.881Z,99.90
2022-08-24T02:56:54.097Z,99.90
2022-08-24T02:59:22.417Z,99.90
2022-08-24T03:01:51.826Z,99.90
2022-08-24T03:04:21.739Z,99.90
2022-08-24T03:06:49.791Z,99.90
2022-08-24T03:09:18.191Z,99.90
2022-08-24T03:11:46.267Z,99.90
2022-08-24T03:14:14.861Z,99.90
2022-08-24T03:16:42.898Z,99.90
2022-08-24T03:19:10.871Z,99.90
2022-08-24T03:21:40.188Z,99.90
2022-08-24T03:24:08.685Z,99.90
2022-08-24T03:26:36.667Z,99.90
2022-08-24T03:29:04.905Z,99.90
2022-08-24T03:31:33.627Z,99.90
2022-08-24T03:34:01.642Z,99.90
2022-08-24T03:36:29.647Z,99.90
2022-08-24T03:38:59.002Z,99.90
2022-08-24T03:41:27.444Z,99.90
2022-08-24T03:43:56.888Z,99.90
2022-08-24T03:46:28.863Z,99.90
2022-08-24T03:48:58.341Z,99.90
2022-08-24T03:51:29.015Z,99.90
2022-08-24T03:54:00.044Z,99.90
2022-08-24T03:56:28.459Z,99.90
2022-08-24T03:58:56.628Z,99.90
2022-08-24T04:01:25.377Z,99.90
2022-08-24T04:03:54.263Z,99.90
2022-08-24T04:06:23.752Z,99.90
2022-08-24T04:08:52.368Z,99.90
2022-08-24T04:11:24.114Z,99.90
2022-08-24T04:13:53.888Z,99.90
2022-08-24T04:16:22.753Z,99.90
2022-08-24T04:18:52.911Z,99.90
2022-08-24T04:21:24.061Z,99.90
2022-08-24T04:23:53.210Z,99.90
2022-08-24T04:26:28.669Z,99.90
2022-08-24T04:29:13.872Z,99.90
2022-08-24T04:31:43.703Z,99.90
2022-08-24T04:34:12.881Z,99.90
2022-08-24T04:36:42.267Z,99.90
2022-08-24T04:39:10.329Z,99.90
2022-08-24T04:41:40.557Z,99.90
2022-08-24T04:44:08.721Z,99.90
2022-08-24T04:46:36.839Z,99.90
2022-08-24T04:49:04.927Z,99.90
2022-08-24T04:51:36.532Z,99.90
2022-08-24T04:54:05.417Z,99.90
2022-08-24T04:56:33.353Z,99.90
2022-08-24T04:59:04.929Z,99.90
2022-08-24T05:01:33.773Z,99.90
2022-08-24T05:04:02.765Z,99.90
2022-08-24T05:06:32.427Z,99.90
2022-08-24T05:09:01.489Z,99.90
2022-08-24T05:11:29.882Z,99.90
2022-08-24T05:13:58.638Z,99.90
2022-08-24T05:16:28.846Z,99.90
2022-08-24T05:19:00.617Z,99.90
2022-08-24T05:21:30.866Z,99.90
2022-08-24T05:23:59.127Z,99.90
2022-08-24T05:26:29.232Z,99.90
2022-08-24T05:28:58.233Z,99.90
2022-08-24T05:31:31.195Z,99.90
2022-08-24T05:34:00.191Z,99.90
2022-08-24T05:36:30.565Z,99.90
2022-08-24T05:39:00.663Z,99.90
2022-08-24T05:41:29.008Z,99.90
2022-08-24T05:43:57.067Z,99.90
2022-08-24T05:46:25.196Z,99.90
2022-08-24T05:48:54.929Z,99.90
2022-08-24T05:51:23.005Z,99.90
2022-08-24T05:53:51.425Z,99.90
2022-08-24T05:56:20.701Z,99.90
2022-08-24T05:58:49.304Z,99.90
2022-08-24T06:01:20.934Z,99.90
2022-08-24T06:03:50.241Z,99.90
2022-08-24T06:06:21.553Z,99.90
2022-08-24T06:08:52.226Z,99.90
2022-08-24T06:11:29.781Z,99.90
2022-08-24T06:14:01.606Z,99.90
2022-08-24T06:16:30.092Z,99.90
2022-08-24T06:18:58.600Z,99.90
2022-08-24T06:21:28.979Z,99.90
2022-08-24T06:23:57.456Z,99.90
2022-08-24T06:26:43.336Z,99.90
2022-08-24T06:29:13.192Z,99.90
2022-08-24T06:31:43.081Z,99.90
2022-08-24T06:34:13.058Z,99.90
2022-08-24T06:36:42.787Z,99.90
2022-08-24T06:39:11.114Z,99.90
2022-08-24T06:41:39.958Z,99.90
2022-08-24T06:44:09.238Z,99.90
2022-08-24T06:46:37.442Z,99.90
2022-08-24T06:49:05.848Z,99.90
2022-08-24T06:51:33.877Z,99.90
2022-08-24T06:54:03.282Z,99.90
2022-08-24T06:56:31.455Z,99.90
2022-08-24T06:59:00.840Z,99.90
2022-08-24T07:01:29.287Z,99.90
2022-08-24T07:03:57.679Z,99.90
2022-08-24T07:06:26.506Z,99.90
2022-08-24T07:08:56.567Z,99.90
2022-08-24T07:11:26.095Z,99.90
2022-08-24T07:13:54.100Z,99.90
2022-08-24T07:16:22.724Z,99.90
2022-08-24T07:18:51.400Z,99.90
2022-08-24T07:21:20.170Z,99.90
2022-08-24T07:23:48.726Z,99.90
2022-08-24T07:26:22.366Z,99.90
2022-08-24T07:28:52.412Z,99.70
2022-08-24T07:31:21.088Z,99.30
2022-08-24T07:33:49.375Z,99.10
2022-08-24T07:36:22.619Z,98.80
2022-08-24T07:38:52.823Z,97.90
2022-08-24T07:41:46.896Z,98.10
2022-08-24T07:44:12.583Z,97.30
2022-08-24T07:46:41.974Z,96.90
2022-08-24T07:49:21.505Z,96.30
2022-08-24T07:51:59.143Z,96.10
2022-08-24T07:54:28.831Z,95.20
2022-08-24T07:56:56.932Z,95.50
2022-08-24T07:59:26.258Z,94.70
2022-08-24T08:01:54.679Z,94.40
2022-08-24T08:04:25.173Z,94.30
2022-08-24T08:06:53.573Z,94.40
2022-08-24T08:09:21.850Z,93.80
2022-08-24T08:11:50.933Z,93.40
2022-08-24T08:14:18.902Z,92.90
2022-08-24T08:16:48.339Z,93.20
2022-08-24T08:19:16.576Z,92.60
2022-08-24T08:22:03.880Z,91.60
2022-08-24T08:24:31.909Z,91.90
2022-08-24T08:27:00.276Z,91.50
2022-08-24T08:29:29.136Z,90.80
2022-08-24T08:31:58.607Z,91.20
2022-08-24T08:34:26.614Z,90.30
2022-08-24T08:36:55.296Z,90.90
2022-08-24T08:39:25.841Z,90.30
2022-08-24T08:42:30.770Z,88.90
2022-08-24T08:45:09.610Z,87.70
2022-08-24T08:48:21.473Z,89.10
2022-08-24T08:51:43.103Z,86.40
2022-08-24T08:54:23.094Z,86.80
2022-08-24T08:57:17.358Z,84.40
2022-08-24T08:59:58.582Z,86.40
2022-08-24T09:02:43.044Z,84.50
2022-08-24T09:05:34.801Z,85.20
2022-08-24T09:08:15.364Z,82.60
2022-08-24T09:10:55.734Z,80.60
2022-08-24T09:13:49.362Z,77.90
2022-08-24T09:16:35.378Z,77.70
2022-08-24T09:19:31.663Z,80.40
2022-08-24T09:22:10.913Z,76.30
2022-08-24T09:25:00.505Z,77.20
2022-08-24T09:27:37.871Z,78.00
2022-08-24T09:30:12.203Z,77.70
2022-08-24T09:33:01.634Z,76.90
2022-08-24T09:35:36.798Z,76.60
2022-08-24T09:38:16.681Z,74.40
2022-08-24T09:41:03.993Z,74.10
2022-08-24T09:44:03.571Z,72.70
2022-08-24T09:47:16.713Z,73.00
2022-08-24T09:50:11.974Z,72.00
2022-08-24T09:53:10.668Z,70.60
2022-08-24T09:56:01.651Z,69.50
2022-08-24T09:58:46.149Z,69.80
2022-08-24T10:01:24.013Z,64.20
2022-08-24T10:04:05.813Z,66.40
2022-08-24T10:06:45.798Z,65.50
2022-08-24T10:09:45.849Z,66.80
2022-08-24T10:12:29.277Z,65.60
2022-08-24T10:15:05.776Z,63.10
2022-08-24T10:17:46.135Z,64.70
2022-08-24T10:20:23.890Z,59.50
2022-08-24T10:23:04.555Z,63.00
2022-08-24T10:25:39.217Z,61.50
2022-08-24T10:28:51.036Z,61.20
2022-08-24T10:31:24.575Z,61.30
2022-08-24T10:34:04.430Z,61.80
2022-08-24T10:36:50.658Z,64.80
2022-08-24T10:39:45.567Z,61.70
2022-08-24T10:43:13.005Z,59.60
2022-08-24T10:46:12.590Z,62.90
2022-08-24T10:49:23.960Z,64.40
2022-08-24T10:52:21.039Z,59.70
2022-08-24T10:54:49.800Z,57.90
2022-08-24T10:57:29.500Z,58.80
2022-08-24T11:00:06.031Z,57.00
2022-08-24T11:02:39.497Z,57.40
2022-08-24T11:05:09.857Z,57.50
2022-08-24T11:07:52.561Z,58.00
2022-08-24T11:10:27.878Z,55.80
2022-08-24T11:12:56.490Z,59.20
2022-08-24T11:15:28.130Z,59.40
2022-08-24T11:18:02.660Z,58.40
2022-08-24T11:20:33.347Z,58.50
2022-08-24T11:23:05.291Z,58.70
2022-08-24T11:25:36.020Z,58.40
2022-08-24T11:28:09.181Z,58.30
2022-08-24T11:30:41.598Z,59.10
2022-08-24T11:33:29.388Z,58.20
2022-08-24T11:35:59.528Z,57.20
2022-08-24T11:38:30.727Z,59.60
2022-08-24T11:41:04.656Z,59.50
2022-08-24T11:43:45.385Z,61.40
2022-08-24T11:46:24.116Z,58.70
2022-08-24T11:49:08.700Z,59.30
2022-08-24T11:51:47.510Z,56.60
2022-08-24T11:54:25.260Z,58.70
2022-08-24T11:57:09.170Z,56.40
2022-08-24T11:59:46.529Z,56.70
2022-08-24T12:02:19.553Z,56.60
2022-08-24T12:04:56.279Z,56.40
2022-08-24T12:07:41.025Z,59.80
2022-08-24T12:10:21.999Z,56.20
2022-08-24T12:12:55.934Z,60.20
2022-08-24T12:15:35.839Z,60.00
2022-08-24T12:18:11.642Z,60.80
2022-08-24T12:20:48.164Z,60.90
2022-08-24T12:23:21.856Z,61.20
2022-08-24T12:26:02.852Z,58.90
2022-08-24T12:28:36.615Z,59.80
2022-08-24T12:31:11.307Z,58.50
2022-08-24T12:33:44.713Z,56.80
2022-08-24T12:36:22.464Z,59.40
2022-08-24T12:38:58.449Z,60.20
2022-08-24T12:41:32.608Z,59.40
2022-08-24T12:44:07.947Z,58.90
2022-08-24T12:46:37.197Z,59.40
2022-08-24T12:49:13.098Z,59.50
2022-08-24T12:52:00.980Z,58.90
2022-08-24T12:54:50.395Z,59.00
2022-08-24T12:57:54.109Z,58.60
2022-08-24T13:00:28.222Z,60.10
2022-08-24T13:03:00.181Z,59.90
2022-08-24T13:05:40.389Z,59.90
2022-08-24T13:08:20.494Z,57.20
2022-08-24T13:10:54.839Z,56.70
2022-08-24T13:13:39.716Z,57.90
2022-08-24T13:16:10.331Z,57.00
2022-08-24T13:19:08.174Z,57.80
2022-08-24T13:21:43.627Z,59.00
2022-08-24T13:24:52.724Z,59.60
2022-08-24T13:28:12.002Z,60.80
2022-08-24T13:31:11.271Z,60.30
2022-08-24T13:33:43.649Z,59.50
2022-08-24T13:36:48.250Z,59.60
2022-08-24T13:39:43.244Z,59.00
2022-08-24T13:42:30.486Z,60.40
2022-08-24T13:45:10.342Z,60.90
2022-08-24T13:47:53.230Z,61.20
2022-08-24T13:50:39.792Z,61.20
2022-08-24T13:53:30.780Z,61.60
2022-08-24T13:56:32.617Z,61.60
2022-08-24T13:59:09.862Z,60.90
2022-08-24T14:01:51.895Z,61.00
2022-08-24T14:04:40.821Z,62.60
2022-08-24T14:07:15.811Z,62.70
2022-08-24T14:10:03.538Z,61.30
2022-08-24T14:12:50.700Z,61.40
2022-08-24T14:15:25.909Z,60.90
2022-08-24T14:18:06.906Z,62.90
2022-08-24T14:20:58.624Z,63.70
2022-08-24T14:23:48.074Z,60.90
2022-08-24T14:26:54.067Z,62.40
2022-08-24T14:29:47.023Z,63.20
2022-08-24T14:32:41.228Z,64.10
2022-08-24T14:35:31.509Z,64.90
2022-08-24T14:38:26.242Z,65.90
2022-08-24T14:41:07.456Z,65.90
2022-08-24T14:43:54.730Z,64.80
2022-08-24T14:46:33.536Z,66.90
2022-08-24T14:49:13.879Z,66.40
2022-08-24T14:51:54.239Z,67.70
2022-08-24T14:54:36.828Z,66.90
2022-08-24T14:57:21.068Z,67.50
2022-08-24T15:00:01.560Z,67.40
2022-08-24T15:02:50.811Z,66.20
2022-08-24T15:05:29.493Z,66.60
2022-08-24T15:08:00.129Z,68.10
2022-08-24T15:10:39.165Z,67.70
2022-08-24T15:13:12.210Z,68.20
2022-08-24T15:15:49.998Z,68.20
2022-08-24T15:18:36.932Z,68.50
2022-08-24T15:21:14.105Z,68.70
2022-08-24T15:24:09.330Z,69.60
2022-08-24T15:26:53.163Z,69.80
2022-08-24T15:29:24.346Z,69.00
2022-08-24T15:32:07.368Z,69.80
2022-08-24T15:34:42.752Z,69.80
2022-08-24T15:37:11.495Z,70.70
2022-08-24T15:39:39.491Z,70.80
2022-08-24T15:42:13.207Z,70.70
2022-08-24T15:44:44.089Z,71.40
2022-08-24T15:47:25.775Z,70.30
2022-08-24T15:49:57.544Z,70.10
2022-08-24T15:52:43.953Z,70.80
2022-08-24T15:55:29.016Z,70.80
2022-08-24T15:57:59.811Z,70.20
2022-08-24T16:00:55.453Z,70.80
2022-08-24T16:03:26.837Z,70.70
2022-08-24T16:05:57.047Z,71.10
2022-08-24T16:08:25.442Z,71.60
2022-08-24T16:10:56.155Z,71.60
2022-08-24T16:13:31.001Z,72.40
2022-08-24T16:16:03.932Z,72.40
2022-08-24T16:18:48.394Z,71.60
2022-08-24T16:21:21.016Z,71.70
2022-08-24T16:23:56.930Z,72.00
2022-08-24T16:26:27.643Z,72.20
2022-08-24T16:28:58.081Z,72.40
2022-08-24T16:31:51.788Z,73.20
2022-08-24T16:34:28.659Z,74.20
2022-08-24T16:36:57.255Z,74.20
2022-08-24T16:39:25.568Z,74.00
2022-08-24T16:41:56.806Z,74.70
2022-08-24T16:44:27.553Z,74.90
2022-08-24T16:46:55.785Z,75.10
2022-08-24T16:49:23.786Z,75.60
2022-08-24T16:51:51.813Z,75.20
2022-08-24T16:54:20.132Z,75.80
2022-08-24T16:56:48.233Z,75.80
2022-08-24T16:59:23.593Z,76.10
2022-08-24T17:01:53.045Z,76.10
2022-08-24T17:04:21.073Z,75.60
2022-08-24T17:06:50.683Z,76.20
2022-08-24T17:09:19.138Z,76.40
2022-08-24T17:11:47.654Z,76.40
2022-08-24T17:14:16.715Z,76.70
2022-08-24T17:16:45.145Z,77.00
2022-08-24T17:19:18.363Z,76.60
2022-08-24T17:21:47.578Z,76.80
2022-08-24T17:24:19.076Z,76.40
2022-08-24T17:26:48.627Z,76.60
2022-08-24T17:29:18.466Z,77.00
2022-08-24T17:31:49.849Z,77.50
2022-08-24T17:34:21.535Z,77.80
2022-08-24T17:36:50.717Z,78.30
2022-08-24T17:39:19.684Z,78.90
2022-08-24T17:41:48.606Z,79.40
2022-08-24T17:44:21.011Z,79.90
2022-08-24T17:46:50.452Z,80.30
2022-08-24T17:49:20.397Z,80.60
2022-08-24T17:51:49.686Z,81.10
2022-08-24T17:54:18.795Z,81.10
2022-08-24T17:56:48.880Z,81.40
2022-08-24T17:59:23.530Z,81.90
2022-08-24T18:01:54.445Z,82.20
2022-08-24T18:04:27.621Z,82.00
2022-08-24T18:06:56.640Z,82.30
2022-08-24T18:09:30.601Z,82.50
2022-08-24T18:12:04.175Z,82.50
2022-08-24T18:14:34.611Z,83.10
2022-08-24T18:17:05.437Z,83.30
2022-08-24T18:19:36.130Z,83.60
2022-08-24T18:22:05.228Z,84.70
2022-08-24T18:24:34.016Z,84.10
2022-08-24T18:27:04.658Z,84.60
2022-08-24T18:29:41.518Z,84.80
2022-08-24T18:32:12.176Z,84.90
2022-08-24T18:34:42.367Z,85.00
2022-08-24T18:37:10.658Z,86.00
2022-08-24T18:39:38.666Z,85.50
2022-08-24T18:42:08.922Z,86.10
2022-08-24T18:44:38.548Z,86.20
2022-08-24T18:47:07.174Z,86.30
2022-08-24T18:49:37.829Z,86.70
2022-08-24T18:52:09.665Z,86.90
2022-08-24T18:54:41.419Z,87.00
2022-08-24T18:57:09.666Z,86.90
2022-08-24T18:59:40.770Z,87.20
2022-08-24T19:02:30.558Z,87.80
2022-08-24T19:04:59.903Z,87.70
2022-08-24T19:07:32.189Z,87.90
2022-08-24T19:10:00.946Z,88.10
2022-08-24T19:12:31.502Z,88.30
2022-08-24T19:15:01.659Z,88.60
2022-08-24T19:17:29.745Z,88.60
2022-08-24T19:19:58.103Z,89.00
2022-08-24T19:22:27.112Z,89.90
2022-08-24T19:24:57.113Z,90.50
2022-08-24T19:27:25.422Z,90.70
2022-08-24T19:29:56.040Z,90.90
2022-08-24T19:32:27.738Z,91.10
2022-08-24T19:34:56.674Z,91.10
2022-08-24T19:37:25.021Z,91.10
2022-08-24T19:39:53.189Z,91.10
2022-08-24T19:42:23.046Z,91.20
2022-08-24T19:45:11.053Z,91.60
2022-08-24T19:47:39.161Z,91.40
2022-08-24T19:50:08.963Z,91.60
2022-08-24T19:52:39.842Z,91.70
2022-08-24T19:55:09.869Z,92.10
2022-08-24T19:57:55.416Z,92.00
2022-08-24T20:00:34.175Z,92.10
2022-08-24T20:03:03.230Z,92.30
2022-08-24T20:05:32.193Z,92.40
2022-08-24T20:08:03.206Z,92.80
2022-08-24T20:10:32.964Z,93.00
2022-08-24T20:13:02.888Z,93.40
2022-08-24T20:15:31.238Z,93.50
2022-08-24T20:18:00.267Z,93.70
2022-08-24T20:20:29.526Z,94.00
2022-08-24T20:23:00.400Z,94.30
2022-08-24T20:25:28.445Z,94.70
2022-08-24T20:28:25.489Z,95.00
2022-08-24T20:30:47.889Z,95.40
2022-08-24T20:33:18.046Z,95.40
2022-08-24T20:35:46.845Z,95.70
2022-08-24T20:38:17.103Z,95.80
2022-08-24T20:40:45.452Z,95.80
2022-08-24T20:43:13.623Z,95.80
2022-08-24T20:45:42.437Z,96.00
2022-08-24T20:48:13.533Z,96.30
2022-08-24T20:50:44.301Z,96.40
2022-08-24T20:53:12.995Z,96.50
2022-08-24T20:55:45.567Z,96.80
2022-08-24T20:58:14.893Z,97.00
2022-08-24T21:00:44.475Z,97.40
2022-08-24T21:03:16.034Z,97.50
2022-08-24T21:05:44.161Z,97.70
2022-08-24T21:08:13.415Z,97.90
2022-08-24T21:10:42.336Z,98.20
2022-08-24T21:13:10.670Z,98.50
2022-08-24T21:15:39.168Z,98.70
2022-08-24T21:18:07.580Z,98.80
2022-08-24T21:20:36.973Z,99.10
2022-08-24T21:23:11.222Z,99.20
2022-08-24T21:25:39.656Z,99.60
2022-08-24T21:28:07.830Z,99.50
2022-08-24T21:30:35.869Z,99.70
2022-08-24T21:33:24.438Z,99.80
2022-08-24T21:35:54.859Z,99.80
2022-08-24T21:38:23.661Z,99.90
2022-08-24T21:40:53.827Z,99.90
2022-08-24T21:43:22.092Z,99.90
2022-08-24T21:45:50.687Z,99.90
2022-08-24T21:48:19.240Z,99.90
2022-08-24T21:50:48.704Z,99.90
2022-08-24T21:53:18.360Z,99.90
2022-08-24T21:55:46.917Z,99.90
2022-08-24T21:58:14.832Z,99.90
2022-08-24T22:00:42.786Z,99.90
2022-08-24T22:03:11.114Z,99.90
2022-08-24T22:05:39.620Z,99.90
2022-08-24T22:08:08.302Z,99.90
2022-08-24T22:10:37.661Z,99.90
2022-08-24T22:13:06.003Z,99.90
2022-08-24T22:15:34.316Z,99.90
2022-08-24T22:18:02.507Z,99.90
2022-08-24T22:20:30.553Z,99.90
2022-08-24T22:22:59.420Z,99.90
2022-08-24T22:25:27.581Z,99.90
2022-08-24T22:27:56.885Z,99.90
2022-08-24T22:30:25.357Z,99.90
2022-08-24T22:32:53.325Z,99.90
2022-08-24T22:35:21.422Z,99.90
2022-08-24T22:37:49.345Z,99.90
2022-08-24T22:40:19.050Z,99.90
2022-08-24T22:42:47.208Z,99.90
2022-08-24T22:45:16.702Z,99.90
2022-08-24T22:47:44.691Z,99.90
2022-08-24T22:50:12.642Z,99.90
2022-08-24T22:52:40.565Z,99.90
2022-08-24T22:55:09.804Z,99.90
2022-08-24T22:57:37.801Z,99.90
2022-08-24T23:00:08.600Z,99.90
2022-08-24T23:02:38.771Z,99.90
2022-08-24T23:05:08.494Z,99.90
2022-08-24T23:07:36.788Z,99.90
2022-08-24T23:10:05.390Z,99.90
2022-08-24T23:12:33.353Z,99.90
2022-08-24T23:15:01.874Z,99.90
2022-08-24T23:17:29.926Z,99.90
2022-08-24T23:20:01.175Z,99.90
2022-08-24T23:22:31.341Z,99.90
2022-08-24T23:24:59.570Z,99.90
2022-08-24T23:27:49.852Z,99.90
2022-08-24T23:30:18.147Z,99.90
2022-08-24T23:32:46.270Z,99.90
2022-08-24T23:35:15.788Z,99.90
2022-08-24T23:37:43.747Z,99.90
2022-08-24T23:40:12.842Z,99.90
2022-08-24T23:42:40.875Z,99.90
2022-08-24T23:45:12.287Z,99.90
2022-08-24T23:47:40.779Z,99.90
2022-08-24T23:50:11.395Z,99.90
2022-08-24T23:52:41.509Z,99.90
2022-08-24T23:55:20.666Z,99.90
2022-08-24T23:57:50.978Z,99.90
